Union Mills, Pennsylvania
Current Conditions -  °F | °C
As of 8:53 AM on Wednesday 26 Nov 2014 (Local Time) from KUNV Reporting Station
Light Snow Light Snow  
Wind Chill: 26°   Ceiling: 1500
Heat Index: 32°   Visibility: 2mi
Dew Point: 28°   Wind: 7mph
Humidity: 87%   Direction: 50°NE
Pressure: 30.07"   Gusts: NA
Location:  40.5962°N, 77.7424°W
Report Text: KUNV 261353Z 05006KT 2SM -SN OVC015 00/M02 A3007
Loading
Personal Weather Stations






























Interactive Weather Map New forecast layout! Learn more

10-Day Weather Forecast

Advertisements
Track Severe Weather on mobile